sensor_id;sensor_type;location;lat;lon;timestamp;pressure;altitude;pressure_sealevel;temperature;humidity
1736;BME280;865;53.672;10.250;2023-05-18T00:00:45;102389.31;;;6.02;100.00
1736;BME280;865;53.672;10.250;2023-05-18T00:03:12;102383.28;;;6.01;100.00
1736;BME280;865;53.672;10.250;2023-05-18T00:05:38;102387.38;;;5.93;100.00
1736;BME280;865;53.672;10.250;2023-05-18T00:08:05;102387.47;;;5.98;100.00
1736;BME280;865;53.672;10.250;2023-05-18T00:10:31;102385.94;;;6.04;100.00
1736;BME280;865;53.672;10.250;2023-05-18T00:12:58;102386.75;;;6.02;100.00
1736;BME280;865;53.672;10.250;2023-05-18T00:15:24;102388.53;;;6.04;100.00
1736;BME280;865;53.672;10.250;2023-05-18T00:17:50;102387.75;;;6.07;100.00
1736;BME280;865;53.672;10.250;2023-05-18T00:20:18;102391.31;;;6.12;100.00
1736;BME280;865;53.672;10.250;2023-05-18T00:22:47;102388.78;;;6.15;100.00
1736;BME280;865;53.672;10.250;2023-05-18T00:25:15;102388.03;;;6.19;100.00
1736;BME280;865;53.672;10.250;2023-05-18T00:27:42;102390.63;;;6.19;100.00
1736;BME280;865;53.672;10.250;2023-05-18T00:30:08;102390.72;;;6.22;100.00
1736;BME280;865;53.672;10.250;2023-05-18T00:32:35;102382.88;;;6.21;100.00
1736;BME280;865;53.672;10.250;2023-05-18T00:35:02;102394.97;;;6.20;100.00
1736;BME280;865;53.672;10.250;2023-05-18T00:37:28;102394.91;;;6.17;100.00
1736;BME280;865;53.672;10.250;2023-05-18T00:39:54;102389.94;;;6.26;100.00
1736;BME280;865;53.672;10.250;2023-05-18T00:42:21;102390.88;;;6.30;100.00
1736;BME280;865;53.672;10.250;2023-05-18T00:44:47;102396.28;;;6.39;100.00
1736;BME280;865;53.672;10.250;2023-05-18T00:47:14;102393.69;;;6.37;100.00
1736;BME280;865;53.672;10.250;2023-05-18T00:49:40;102396.47;;;6.47;100.00
1736;BME280;865;53.672;10.250;2023-05-18T00:52:07;102400.53;;;6.35;100.00
1736;BME280;865;53.672;10.250;2023-05-18T00:54:34;102403.03;;;6.32;100.00
1736;BME280;865;53.672;10.250;2023-05-18T00:57:00;102401.97;;;6.24;100.00
1736;BME280;865;53.672;10.250;2023-05-18T00:59:29;102407.44;;;6.35;100.00
1736;BME280;865;53.672;10.250;2023-05-18T01:01:55;102401.75;;;6.15;100.00
1736;BME280;865;53.672;10.250;2023-05-18T01:04:22;102404.56;;;6.24;100.00
1736;BME280;865;53.672;10.250;2023-05-18T01:06:49;102407.47;;;6.03;100.00
1736;BME280;865;53.672;10.250;2023-05-18T01:09:21;102402.44;;;6.08;100.00
1736;BME280;865;53.672;10.250;2023-05-18T01:14:43;102411.88;;;6.06;100.00
1736;BME280;865;53.672;10.250;2023-05-18T01:17:25;102412.25;;;6.21;100.00
1736;BME280;865;53.672;10.250;2023-05-18T01:20:16;102411.38;;;6.19;100.00
1736;BME280;865;53.672;10.250;2023-05-18T01:23:05;102410.78;;;6.31;100.00
1736;BME280;865;53.672;10.250;2023-05-18T01:28:29;102411.31;;;6.18;100.00
1736;BME280;865;53.672;10.250;2023-05-18T01:30:57;102417.13;;;6.09;100.00
1736;BME280;865;53.672;10.250;2023-05-18T01:33:24;102409.19;;;6.03;100.00
1736;BME280;865;53.672;10.250;2023-05-18T01:35:50;102416.13;;;6.04;100.00
1736;BME280;865;53.672;10.250;2023-05-18T01:38:20;102409.91;;;5.97;100.00
1736;BME280;865;53.672;10.250;2023-05-18T01:40:55;102414.97;;;5.92;100.00
1736;BME280;865;53.672;10.250;2023-05-18T01:43:37;102418.56;;;5.98;100.00
1736;BME280;865;53.672;10.250;2023-05-18T01:48:53;102421.06;;;5.94;100.00
1736;BME280;865;53.672;10.250;2023-05-18T01:51:23;102427.03;;;5.92;100.00
1736;BME280;865;53.672;10.250;2023-05-18T01:53:59;102422.88;;;5.97;100.00
1736;BME280;865;53.672;10.250;2023-05-18T01:56:29;102422.25;;;5.74;100.00
1736;BME280;865;53.672;10.250;2023-05-18T01:58:57;102422.31;;;5.77;100.00
1736;BME280;865;53.672;10.250;2023-05-18T02:01:23;102428.22;;;5.71;100.00
1736;BME280;865;53.672;10.250;2023-05-18T02:03:50;102427.75;;;5.86;100.00
1736;BME280;865;53.672;10.250;2023-05-18T02:06:16;102426.13;;;5.90;100.00
1736;BME280;865;53.672;10.250;2023-05-18T02:08:43;102416.13;;;6.04;100.00
1736;BME280;865;53.672;10.250;2023-05-18T02:11:09;102428.03;;;5.97;100.00
1736;BME280;865;53.672;10.250;2023-05-18T02:13:36;102422.50;;;5.83;100.00
1736;BME280;865;53.672;10.250;2023-05-18T02:16:02;102419.06;;;5.84;100.00
1736;BME280;865;53.672;10.250;2023-05-18T02:18:29;102425.09;;;5.85;100.00
1736;BME280;865;53.672;10.250;2023-05-18T02:20:59;102422.50;;;5.83;100.00
1736;BME280;865;53.672;10.250;2023-05-18T02:23:26;102420.56;;;5.76;100.00
1736;BME280;865;53.672;10.250;2023-05-18T02:25:53;102418.88;;;5.78;100.00
1736;BME280;865;53.672;10.250;2023-05-18T02:28:21;102423.13;;;5.75;100.00
1736;BME280;865;53.672;10.250;2023-05-18T02:30:47;102423.03;;;5.71;100.00
1736;BME280;865;53.672;10.250;2023-05-18T02:33:14;102428.25;;;5.73;100.00
1736;BME280;865;53.672;10.250;2023-05-18T02:35:40;102427.53;;;5.79;100.00
1736;BME280;865;53.672;10.250;2023-05-18T02:38:06;102425.72;;;5.76;100.00
1736;BME280;865;53.672;10.250;2023-05-18T02:40:33;102427.41;;;5.74;100.00
1736;BME280;865;53.672;10.250;2023-05-18T02:42:59;102424.78;;;5.72;100.00
1736;BME280;865;53.672;10.250;2023-05-18T02:45:26;102435.00;;;5.68;100.00
1736;BME280;865;53.672;10.250;2023-05-18T02:47:52;102423.06;;;5.73;100.00
1736;BME280;865;53.672;10.250;2023-05-18T02:50:19;102433.50;;;5.76;100.00
1736;BME280;865;53.672;10.250;2023-05-18T02:52:45;102433.16;;;5.64;100.00
1736;BME280;865;53.672;10.250;2023-05-18T02:55:14;102435.00;;;5.68;100.00
1736;BME280;865;53.672;10.250;2023-05-18T02:57:40;102429.00;;;5.69;100.00
1736;BME280;865;53.672;10.250;2023-05-18T03:00:13;102430.56;;;5.64;100.00
1736;BME280;865;53.672;10.250;2023-05-18T03:02:42;102438.44;;;5.67;100.00
1736;BME280;865;53.672;10.250;2023-05-18T03:05:09;102437.41;;;5.62;100.00
1736;BME280;865;53.672;10.250;2023-05-18T03:07:35;102431.63;;;5.70;100.00
1736;BME280;865;53.672;10.250;2023-05-18T03:10:03;102433.31;;;5.70;100.00
1736;BME280;865;53.672;10.250;2023-05-18T03:12:29;102425.41;;;5.64;100.00
1736;BME280;865;53.672;10.250;2023-05-18T03:14:56;102437.03;;;5.48;100.00
1736;BME280;865;53.672;10.250;2023-05-18T03:17:22;102431.16;;;5.54;100.00
1736;BME280;865;53.672;10.250;2023-05-18T03:19:48;102430.50;;;5.61;100.00
1736;BME280;865;53.672;10.250;2023-05-18T03:22:15;102430.66;;;5.67;100.00
1736;BME280;865;53.672;10.250;2023-05-18T03:24:41;102434.19;;;5.70;100.00
1736;BME280;865;53.672;10.250;2023-05-18T03:27:08;102438.66;;;5.75;100.00
1736;BME280;865;53.672;10.250;2023-05-18T03:29:34;102438.81;;;5.81;100.00
1736;BME280;865;53.672;10.250;2023-05-18T03:32:01;102437.81;;;5.76;100.00
1736;BME280;865;53.672;10.250;2023-05-18T03:34:28;102442.97;;;5.74;100.00
1736;BME280;865;53.672;10.250;2023-05-18T03:36:54;102448.22;;;5.77;100.00
1736;BME280;865;53.672;10.250;2023-05-18T03:39:20;102444.69;;;5.75;100.00
1736;BME280;865;53.672;10.250;2023-05-18T03:41:47;102448.91;;;5.71;100.00
1736;BME280;865;53.672;10.250;2023-05-18T03:44:13;102451.13;;;5.58;100.00
1736;BME280;865;53.672;10.250;2023-05-18T03:46:40;102449.28;;;5.54;100.00
1736;BME280;865;53.672;10.250;2023-05-18T03:49:06;102452.41;;;5.74;100.00
1736;BME280;865;53.672;10.250;2023-05-18T03:51:33;102448.25;;;5.79;100.00
1736;BME280;865;53.672;10.250;2023-05-18T03:53:59;102446.34;;;5.73;100.00
1736;BME280;865;53.672;10.250;2023-05-18T03:56:26;102449.25;;;5.84;100.00
1736;BME280;865;53.672;10.250;2023-05-18T03:58:52;102446.09;;;5.94;100.00
1736;BME280;865;53.672;10.250;2023-05-18T04:01:19;102448.75;;;5.96;100.00
1736;BME280;865;53.672;10.250;2023-05-18T04:03:48;102449.44;;;5.91;100.00
1736;BME280;865;53.672;10.250;2023-05-18T04:06:16;102446.66;;;5.84;100.00
1736;BME280;865;53.672;10.250;2023-05-18T04:08:42;102447.31;;;5.77;100.00
1736;BME280;865;53.672;10.250;2023-05-18T04:11:11;102447.47;;;5.83;100.00
1736;BME280;865;53.672;10.250;2023-05-18T04:13:37;102461.41;;;5.86;100.00
1736;BME280;865;53.672;10.250;2023-05-18T04:16:04;102460.84;;;5.97;100.00
1736;BME280;865;53.672;10.250;2023-05-18T04:18:31;102468.69;;;6.00;100.00
1736;BME280;865;53.672;10.250;2023-05-18T04:20:57;102467.16;;;6.06;100.00
1736;BME280;865;53.672;10.250;2023-05-18T04:23:25;102470.34;;;5.96;100.00
1736;BME280;865;53.672;10.250;2023-05-18T04:25:53;102466.81;;;5.94;100.00
1736;BME280;865;53.672;10.250;2023-05-18T04:28:21;102477.25;;;5.97;100.00
1736;BME280;865;53.672;10.250;2023-05-18T04:30:47;102479.47;;;5.83;100.00
1736;BME280;865;53.672;10.250;2023-05-18T04:33:14;102481.53;;;5.95;100.00
1736;BME280;865;53.672;10.250;2023-05-18T04:35:42;102488.09;;;5.84;100.00
1736;BME280;865;53.672;10.250;2023-05-18T04:38:08;102480.78;;;5.99;100.00
1736;BME280;865;53.672;10.250;2023-05-18T04:40:35;102487.78;;;6.03;100.00
1736;BME280;865;53.672;10.250;2023-05-18T04:43:03;102491.72;;;6.21;100.00
1736;BME280;865;53.672;10.250;2023-05-18T04:45:30;102490.69;;;6.15;100.00
1736;BME280;865;53.672;10.250;2023-05-18T04:47:59;102495.25;;;6.24;100.00
1736;BME280;865;53.672;10.250;2023-05-18T04:50:27;102498.00;;;6.30;100.00
1736;BME280;865;53.672;10.250;2023-05-18T04:52:53;102493.28;;;6.15;100.00
1736;BME280;865;53.672;10.250;2023-05-18T04:55:23;102495.88;;;6.15;100.00
1736;BME280;865;53.672;10.250;2023-05-18T04:57:54;102494.84;;;6.09;100.00
1736;BME280;865;53.672;10.250;2023-05-18T05:00:22;102497.28;;;6.03;100.00
1736;BME280;865;53.672;10.250;2023-05-18T05:02:52;102502.28;;;5.97;100.00
1736;BME280;865;53.672;10.250;2023-05-18T05:05:19;102504.41;;;6.10;100.00
1736;BME280;865;53.672;10.250;2023-05-18T05:07:48;102500.09;;;6.10;100.00
1736;BME280;865;53.672;10.250;2023-05-18T05:10:15;102514.31;;;6.26;100.00
1736;BME280;865;53.672;10.250;2023-05-18T05:12:41;102513.78;;;6.38;100.00
1736;BME280;865;53.672;10.250;2023-05-18T05:15:08;102507.25;;;6.54;100.00
1736;BME280;865;53.672;10.250;2023-05-18T05:17:35;102513.63;;;6.33;100.00
1736;BME280;865;53.672;10.250;2023-05-18T05:20:01;102514.09;;;6.19;100.00
1736;BME280;865;53.672;10.250;2023-05-18T05:22:28;102516.91;;;6.26;100.00
1736;BME280;865;53.672;10.250;2023-05-18T05:24:54;102517.06;;;6.32;100.00
1736;BME280;865;53.672;10.250;2023-05-18T05:27:20;102522.41;;;6.37;100.00
1736;BME280;865;53.672;10.250;2023-05-18T05:29:48;102524.09;;;6.36;100.00
1736;BME280;865;53.672;10.250;2023-05-18T05:32:15;102525.88;;;6.39;100.00
1736;BME280;865;53.672;10.250;2023-05-18T05:34:42;102528.31;;;6.33;100.00
1736;BME280;865;53.672;10.250;2023-05-18T05:37:12;102531.03;;;6.37;100.00
1736;BME280;865;53.672;10.250;2023-05-18T05:39:39;102534.88;;;6.52;100.00
1736;BME280;865;53.672;10.250;2023-05-18T05:42:05;102531.81;;;6.68;100.00
1736;BME280;865;53.672;10.250;2023-05-18T05:44:33;102537.22;;;6.76;100.00
1736;BME280;865;53.672;10.250;2023-05-18T05:47:00;102536.06;;;6.65;100.00
1736;BME280;865;53.672;10.250;2023-05-18T05:49:26;102538.72;;;6.68;100.00
1736;BME280;865;53.672;10.250;2023-05-18T05:51:52;102544.53;;;6.57;100.00
1736;BME280;865;53.672;10.250;2023-05-18T05:54:19;102535.25;;;6.67;100.00
1736;BME280;865;53.672;10.250;2023-05-18T05:56:46;102541.41;;;6.71;100.00
1736;BME280;865;53.672;10.250;2023-05-18T05:59:12;102554.06;;;6.60;100.00
1736;BME280;865;53.672;10.250;2023-05-18T06:01:38;102559.19;;;6.57;100.00
1736;BME280;865;53.672;10.250;2023-05-18T06:04:05;102553.28;;;6.62;100.00
1736;BME280;865;53.672;10.250;2023-05-18T06:06:36;102559.41;;;6.65;100.00
1736;BME280;865;53.672;10.250;2023-05-18T06:09:04;102550.97;;;6.73;100.00
1736;BME280;865;53.672;10.250;2023-05-18T06:11:30;102547.47;;;6.71;100.00
1736;BME280;865;53.672;10.250;2023-05-18T06:13:56;102552.13;;;6.84;100.00
1736;BME280;865;53.672;10.250;2023-05-18T06:16:24;102554.16;;;6.96;100.00
1736;BME280;865;53.672;10.250;2023-05-18T06:18:50;102567.50;;;7.13;100.00
1736;BME280;865;53.672;10.250;2023-05-18T06:21:17;102566.22;;;6.96;100.00
1736;BME280;865;53.672;10.250;2023-05-18T06:23:43;102563.69;;;6.99;100.00
1736;BME280;865;53.672;10.250;2023-05-18T06:26:12;102567.50;;;6.77;100.00
1736;BME280;865;53.672;10.250;2023-05-18T06:28:39;102563.47;;;6.90;100.00
1736;BME280;865;53.672;10.250;2023-05-18T06:31:07;102564.41;;;6.92;100.00
1736;BME280;865;53.672;10.250;2023-05-18T06:33:33;102561.81;;;6.92;100.00
1736;BME280;865;53.672;10.250;2023-05-18T06:36:01;102565.31;;;6.94;100.00
1736;BME280;865;53.672;10.250;2023-05-18T06:38:28;102564.69;;;7.02;100.00
1736;BME280;865;53.672;10.250;2023-05-18T06:40:54;102572.59;;;7.08;100.00
1736;BME280;865;53.672;10.250;2023-05-18T06:43:20;102569.22;;;7.13;100.00
1736;BME280;865;53.672;10.250;2023-05-18T06:45:47;102574.84;;;7.29;100.00
1736;BME280;865;53.672;10.250;2023-05-18T06:48:13;102572.78;;;7.52;100.00
1736;BME280;865;53.672;10.250;2023-05-18T06:50:39;102569.19;;;7.47;100.00
1736;BME280;865;53.672;10.250;2023-05-18T06:53:06;102567.22;;;7.37;100.00
1736;BME280;865;53.672;10.250;2023-05-18T06:55:32;102574.44;;;7.50;100.00
1736;BME280;865;53.672;10.250;2023-05-18T06:57:59;102572.13;;;7.64;100.00
1736;BME280;865;53.672;10.250;2023-05-18T07:00:25;102577.78;;;7.46;100.00
1736;BME280;865;53.672;10.250;2023-05-18T07:02:51;102579.81;;;7.20;100.00
1736;BME280;865;53.672;10.250;2023-05-18T07:05:18;102574.28;;;7.06;100.00
1736;BME280;865;53.672;10.250;2023-05-18T07:07:44;102575.13;;;7.05;100.00
1736;BME280;865;53.672;10.250;2023-05-18T07:10:12;102574.28;;;7.06;100.00
1736;BME280;865;53.672;10.250;2023-05-18T07:12:39;102577.38;;;6.92;100.00
1736;BME280;865;53.672;10.250;2023-05-18T07:15:06;102575.06;;;7.04;100.00
1736;BME280;865;53.672;10.250;2023-05-18T07:17:32;102568.66;;;7.24;100.00
1736;BME280;865;53.672;10.250;2023-05-18T07:19:59;102573.56;;;7.50;100.00
1736;BME280;865;53.672;10.250;2023-05-18T07:22:25;102567.94;;;7.69;100.00
1736;BME280;865;53.672;10.250;2023-05-18T07:24:52;102575.28;;;7.89;100.00
1736;BME280;865;53.672;10.250;2023-05-18T07:27:18;102587.16;;;7.78;100.00
1736;BME280;865;53.672;10.250;2023-05-18T07:29:44;102576.56;;;7.29;100.00
1736;BME280;865;53.672;10.250;2023-05-18T07:32:11;102584.94;;;7.17;100.00
1736;BME280;865;53.672;10.250;2023-05-18T07:34:37;102577.25;;;7.61;100.00
1736;BME280;865;53.672;10.250;2023-05-18T07:37:03;102573.63;;;7.92;100.00
1736;BME280;865;53.672;10.250;2023-05-18T07:39:30;102567.06;;;8.11;100.00
1736;BME280;865;53.672;10.250;2023-05-18T07:41:56;102582.25;;;8.34;100.00
1736;BME280;865;53.672;10.250;2023-05-18T07:44:22;102583.13;;;8.34;100.00
1736;BME280;865;53.672;10.250;2023-05-18T07:46:49;102589.34;;;8.00;100.00
1736;BME280;865;53.672;10.250;2023-05-18T07:49:16;102583.44;;;8.07;100.00
1736;BME280;865;53.672;10.250;2023-05-18T07:51:42;102587.91;;;7.72;100.00
1736;BME280;865;53.672;10.250;2023-05-18T07:54:08;102587.34;;;7.85;100.00
1736;BME280;865;53.672;10.250;2023-05-18T07:56:35;102593.09;;;7.72;100.00
1736;BME280;865;53.672;10.250;2023-05-18T07:59:01;102592.31;;;7.76;100.00
1736;BME280;865;53.672;10.250;2023-05-18T08:01:28;102590.09;;;7.93;100.00
1736;BME280;865;53.672;10.250;2023-05-18T08:03:55;102585.56;;;7.84;100.00
1736;BME280;865;53.672;10.250;2023-05-18T08:06:22;102598.00;;;7.99;100.00
1736;BME280;865;53.672;10.250;2023-05-18T08:08:49;102584.44;;;8.12;100.00
1736;BME280;865;53.672;10.250;2023-05-18T08:11:15;102583.00;;;7.86;100.00
1736;BME280;865;53.672;10.250;2023-05-18T08:13:41;102586.78;;;7.61;100.00
1736;BME280;865;53.672;10.250;2023-05-18T08:16:08;102589.69;;;7.74;100.00
1736;BME280;865;53.672;10.250;2023-05-18T08:18:38;102587.59;;;7.58;100.00
1736;BME280;865;53.672;10.250;2023-05-18T08:21:04;102585.91;;;7.60;100.00
1736;BME280;865;53.672;10.250;2023-05-18T08:23:33;102585.38;;;7.75;100.00
1736;BME280;865;53.672;10.250;2023-05-18T08:26:00;102586.56;;;7.91;100.00
1736;BME280;865;53.672;10.250;2023-05-18T08:28:29;102591.31;;;7.69;100.00
1736;BME280;865;53.672;10.250;2023-05-18T08:30:55;102587.13;;;7.76;100.00
1736;BME280;865;53.672;10.250;2023-05-18T08:33:22;102580.28;;;8.22;100.00
1736;BME280;865;53.672;10.250;2023-05-18T08:35:49;102584.53;;;8.62;100.00
1736;BME280;865;53.672;10.250;2023-05-18T08:38:16;102587.88;;;8.54;100.00
1736;BME280;865;53.672;10.250;2023-05-18T08:40:49;102584.13;;;8.39;100.00
1736;BME280;865;53.672;10.250;2023-05-18T08:43:24;102575.94;;;8.66;100.00
1736;BME280;865;53.672;10.250;2023-05-18T08:46:06;102574.16;;;9.16;100.00
1736;BME280;865;53.672;10.250;2023-05-18T08:48:35;102576.81;;;9.19;100.00
1736;BME280;865;53.672;10.250;2023-05-18T08:51:02;102572.28;;;9.66;100.00
1736;BME280;865;53.672;10.250;2023-05-18T08:53:31;102571.53;;;9.75;100.00
1736;BME280;865;53.672;10.250;2023-05-18T08:55:59;102574.28;;;9.87;100.00
1736;BME280;865;53.672;10.250;2023-05-18T08:58:34;102563.94;;;9.93;100.00
1736;BME280;865;53.672;10.250;2023-05-18T09:01:02;102566.88;;;10.19;100.00
1736;BME280;865;53.672;10.250;2023-05-18T09:03:30;102572.94;;;10.18;100.00
1736;BME280;865;53.672;10.250;2023-05-18T09:05:58;102569.50;;;10.21;100.00
1736;BME280;865;53.672;10.250;2023-05-18T09:08:27;102565.38;;;9.67;100.00
1736;BME280;865;53.672;10.250;2023-05-18T09:10:55;102571.53;;;9.73;100.00
1736;BME280;865;53.672;10.250;2023-05-18T09:13:22;102574.84;;;9.63;100.00
1736;BME280;865;53.672;10.250;2023-05-18T09:15:49;102570.00;;;9.88;100.00
1736;BME280;865;53.672;10.250;2023-05-18T09:18:16;102565.78;;;10.00;100.00
1736;BME280;865;53.672;10.250;2023-05-18T09:20:43;102569.50;;;10.21;100.00
1736;BME280;865;53.672;10.250;2023-05-18T09:23:11;102561.25;;;9.86;100.00
1736;BME280;865;53.672;10.250;2023-05-18T09:25:43;102565.81;;;10.03;100.00
1736;BME280;865;53.672;10.250;2023-05-18T09:30:57;102563.25;;;10.08;100.00
1736;BME280;865;53.672;10.250;2023-05-18T09:33:24;102565.53;;;9.79;100.00
1736;BME280;865;53.672;10.250;2023-05-18T09:35:51;102556.69;;;9.68;100.00
1736;BME280;865;53.672;10.250;2023-05-18T09:38:20;102559.59;;;9.92;100.00
1736;BME280;865;53.672;10.250;2023-05-18T09:40:48;102555.28;;;9.30;100.00
1736;BME280;865;53.672;10.250;2023-05-18T09:43:16;102555.97;;;9.81;100.00
1736;BME280;865;53.672;10.250;2023-05-18T09:45:45;102551.03;;;9.34;100.00
1736;BME280;865;53.672;10.250;2023-05-18T09:48:13;102553.13;;;9.63;100.00
1736;BME280;865;53.672;10.250;2023-05-18T09:50:39;102552.94;;;10.14;100.00
1736;BME280;865;53.672;10.250;2023-05-18T09:53:07;102542.41;;;10.08;100.00
1736;BME280;865;53.672;10.250;2023-05-18T09:55:43;102548.19;;;10.60;100.00
1736;BME280;865;53.672;10.250;2023-05-18T09:58:10;102545.50;;;10.53;100.00
1736;BME280;865;53.672;10.250;2023-05-18T10:00:40;102549.47;;;10.20;100.00
1736;BME280;865;53.672;10.250;2023-05-18T10:03:21;102547.28;;;10.55;100.00
1736;BME280;865;53.672;10.250;2023-05-18T10:05:49;102544.06;;;10.88;100.00
1736;BME280;865;53.672;10.250;2023-05-18T10:08:16;102543.41;;;10.18;100.00
1736;BME280;865;53.672;10.250;2023-05-18T10:10:44;102537.44;;;10.26;100.00
1736;BME280;865;53.672;10.250;2023-05-18T10:13:13;102538.47;;;10.42;100.00
1736;BME280;865;53.672;10.250;2023-05-18T10:15:47;102541.03;;;10.39;100.00
1736;BME280;865;53.672;10.250;2023-05-18T10:18:20;102539.81;;;10.98;100.00
1736;BME280;865;53.672;10.250;2023-05-18T10:20:48;102545.75;;;10.79;100.00
1736;BME280;865;53.672;10.250;2023-05-18T10:23:16;102537.50;;;10.34;100.00
1736;BME280;865;53.672;10.250;2023-05-18T10:25:44;102534.41;;;10.77;100.00
1736;BME280;865;53.672;10.250;2023-05-18T10:28:13;102536.16;;;10.79;100.00
1736;BME280;865;53.672;10.250;2023-05-18T10:30:42;102539.81;;;10.98;100.00
1736;BME280;865;53.672;10.250;2023-05-18T10:33:09;102528.50;;;10.99;100.00
1736;BME280;865;53.672;10.250;2023-05-18T10:35:54;102532.84;;;11.00;100.00
1736;BME280;865;53.672;10.250;2023-05-18T10:38:25;102528.88;;;11.57;100.00
1736;BME280;865;53.672;10.250;2023-05-18T10:40:57;102527.19;;;11.73;100.00
1736;BME280;865;53.672;10.250;2023-05-18T10:43:26;102527.28;;;11.85;100.00
1736;BME280;865;53.672;10.250;2023-05-18T10:45:58;102526.41;;;11.85;100.00
1736;BME280;865;53.672;10.250;2023-05-18T10:48:27;102524.53;;;11.69;100.00
1736;BME280;865;53.672;10.250;2023-05-18T10:50:55;102520.25;;;11.78;100.00
1736;BME280;865;53.672;10.250;2023-05-18T10:53:24;102520.06;;;11.40;100.00
1736;BME280;865;53.672;10.250;2023-05-18T10:55:55;102526.97;;;11.29;100.00
1736;BME280;865;53.672;10.250;2023-05-18T10:58:24;102534.16;;;11.71;100.00
1736;BME280;865;53.672;10.250;2023-05-18T11:00:54;102538.53;;;11.77;100.00
1736;BME280;865;53.672;10.250;2023-05-18T11:03:21;102528.91;;;11.71;100.00
1736;BME280;865;53.672;10.250;2023-05-18T11:08:28;102526.34;;;11.79;100.00
1736;BME280;865;53.672;10.250;2023-05-18T11:11:04;102529.06;;;11.96;99.48
1736;BME280;865;53.672;10.250;2023-05-18T11:13:34;102532.47;;;11.81;95.93
1736;BME280;865;53.672;10.250;2023-05-18T11:16:02;102525.50;;;11.84;100.00
1736;BME280;865;53.672;10.250;2023-05-18T11:18:42;102534.97;;;11.59;92.50
1736;BME280;865;53.672;10.250;2023-05-18T11:26:56;102529.13;;;12.17;84.97
1736;BME280;865;53.672;10.250;2023-05-18T11:29:33;102525.66;;;12.43;87.38
1736;BME280;865;53.672;10.250;2023-05-18T11:32:00;102520.47;;;12.69;88.78
1736;BME280;865;53.672;10.250;2023-05-18T11:34:45;102523.94;;;12.69;84.70
1736;BME280;865;53.672;10.250;2023-05-18T11:37:45;102520.38;;;12.09;86.90
1736;BME280;865;53.672;10.250;2023-05-18T11:40:11;102516.03;;;12.16;87.80
1736;BME280;865;53.672;10.250;2023-05-18T11:42:38;102516.09;;;12.75;93.75
1736;BME280;865;53.672;10.250;2023-05-18T11:47:33;102509.09;;;12.31;88.78
1736;BME280;865;53.672;10.250;2023-05-18T11:50:02;102509.84;;;11.89;94.48
1736;BME280;865;53.672;10.250;2023-05-18T11:52:31;102507.31;;;12.21;91.72
1736;BME280;865;53.672;10.250;2023-05-18T11:54:58;102502.97;;;12.23;95.98
1736;BME280;865;53.672;10.250;2023-05-18T11:57:38;102506.41;;;12.10;94.58
1736;BME280;865;53.672;10.250;2023-05-18T12:00:09;102512.53;;;12.15;88.97
1736;BME280;865;53.672;10.250;2023-05-18T12:02:47;102508.09;;;11.90;93.18
1736;BME280;865;53.672;10.250;2023-05-18T12:05:14;102509.03;;;12.04;91.49
1736;BME280;865;53.672;10.250;2023-05-18T12:07:41;102498.63;;;12.27;93.31
1736;BME280;865;53.672;10.250;2023-05-18T12:10:13;102494.28;;;12.61;93.71
1736;BME280;865;53.672;10.250;2023-05-18T12:12:53;102493.38;;;12.96;95.31
1736;BME280;865;53.672;10.250;2023-05-18T12:15:23;102500.38;;;13.03;96.33
1736;BME280;865;53.672;10.250;2023-05-18T12:17:50;102498.59;;;13.13;92.72
1736;BME280;865;53.672;10.250;2023-05-18T12:20:18;102493.41;;;12.84;86.82
1736;BME280;865;53.672;10.250;2023-05-18T12:22:47;102486.38;;;12.93;90.43
1736;BME280;865;53.672;10.250;2023-05-18T12:25:15;102484.56;;;13.44;91.73
1736;BME280;865;53.672;10.250;2023-05-18T12:27:43;102485.41;;;13.50;91.93
1736;BME280;865;53.672;10.250;2023-05-18T12:30:19;102483.69;;;13.44;88.42
1736;BME280;865;53.672;10.250;2023-05-18T12:32:54;102481.06;;;13.45;93.77
1736;BME280;865;53.672;10.250;2023-05-18T12:35:22;102483.53;;;13.76;86.87
1736;BME280;865;53.672;10.250;2023-05-18T12:37:49;102477.38;;;13.89;87.67
1736;BME280;865;53.672;10.250;2023-05-18T12:40:17;102478.13;;;14.05;86.89
1736;BME280;865;53.672;10.250;2023-05-18T12:42:57;102472.84;;;14.11;90.52
1736;BME280;865;53.672;10.250;2023-05-18T12:45:29;102472.06;;;13.97;88.44
1736;BME280;865;53.672;10.250;2023-05-18T12:48:06;102472.09;;;13.96;90.16
1736;BME280;865;53.672;10.250;2023-05-18T12:50:33;102472.97;;;13.91;89.10
1736;BME280;865;53.672;10.250;2023-05-18T12:53:02;102467.94;;;13.47;86.70
1736;BME280;865;53.672;10.250;2023-05-18T12:55:29;102472.34;;;13.42;93.10
1736;BME280;865;53.672;10.250;2023-05-18T12:58:02;102466.16;;;13.52;92.16
1736;BME280;865;53.672;10.250;2023-05-18T13:00:32;102465.38;;;13.32;88.13
1736;BME280;865;53.672;10.250;2023-05-18T13:03:13;102460.03;;;13.53;82.22
1736;BME280;865;53.672;10.250;2023-05-18T13:05:43;102458.16;;;13.83;82.38
1736;BME280;865;53.672;10.250;2023-05-18T13:08:19;102458.97;;;13.94;84.82
1736;BME280;865;53.672;10.250;2023-05-18T13:10:48;102452.03;;;13.84;79.78
1736;BME280;865;53.672;10.250;2023-05-18T13:13:31;102446.78;;;13.84;83.15
1736;BME280;865;53.672;10.250;2023-05-18T13:15:57;102445.69;;;14.16;81.50
1736;BME280;865;53.672;10.250;2023-05-18T13:18:25;102450.91;;;14.23;87.00
1736;BME280;865;53.672;10.250;2023-05-18T13:20:55;102445.44;;;14.52;84.19
1736;BME280;865;53.672;10.250;2023-05-18T13:23:23;102447.31;;;14.30;77.16
1736;BME280;865;53.672;10.250;2023-05-18T13:25:51;102442.34;;;13.98;75.12
1736;BME280;865;53.672;10.250;2023-05-18T13:28:20;102444.63;;;14.41;79.00
1736;BME280;865;53.672;10.250;2023-05-18T13:30:47;102438.41;;;14.56;79.03
1736;BME280;865;53.672;10.250;2023-05-18T13:33:16;102432.31;;;14.48;76.97
1736;BME280;865;53.672;10.250;2023-05-18T13:35:44;102443.03;;;14.25;77.76
1736;BME280;865;53.672;10.250;2023-05-18T13:38:12;102438.00;;;13.91;81.07